sensor_id;sensor_type;location;lat;lon;timestamp;temperature;humidity
12426;DHT22;6277;49.824;9.562;2022-12-17T00:01:17;-4.80;60.90
12426;DHT22;6277;49.824;9.562;2022-12-17T00:04:02;-4.80;60.90
12426;DHT22;6277;49.824;9.562;2022-12-17T00:06:46;-4.80;60.90
12426;DHT22;6277;49.824;9.562;2022-12-17T00:09:30;-4.90;60.80
12426;DHT22;6277;49.824;9.562;2022-12-17T00:12:14;-4.90;60.90
12426;DHT22;6277;49.824;9.562;2022-12-17T00:14:58;-4.90;60.90
12426;DHT22;6277;49.824;9.562;2022-12-17T00:17:42;-4.90;60.90
12426;DHT22;6277;49.824;9.562;2022-12-17T00:20:26;-4.90;61.00
12426;DHT22;6277;49.824;9.562;2022-12-17T00:23:11;-5.00;60.90
12426;DHT22;6277;49.824;9.562;2022-12-17T00:25:56;-5.00;61.00
12426;DHT22;6277;49.824;9.562;2022-12-17T00:28:40;-5.00;61.10
12426;DHT22;6277;49.824;9.562;2022-12-17T00:31:26;-5.00;61.10
12426;DHT22;6277;49.824;9.562;2022-12-17T00:34:11;-5.00;61.10
12426;DHT22;6277;49.824;9.562;2022-12-17T00:36:56;-5.10;61.00
12426;DHT22;6277;49.824;9.562;2022-12-17T00:39:40;-5.00;61.00
12426;DHT22;6277;49.824;9.562;2022-12-17T00:42:24;-5.10;61.00
12426;DHT22;6277;49.824;9.562;2022-12-17T00:45:08;-5.10;61.10
12426;DHT22;6277;49.824;9.562;2022-12-17T00:47:53;-5.10;61.10
12426;DHT22;6277;49.824;9.562;2022-12-17T00:50:37;-5.10;61.00
12426;DHT22;6277;49.824;9.562;2022-12-17T00:53:21;-5.10;61.10
12426;DHT22;6277;49.824;9.562;2022-12-17T00:56:06;-5.10;61.10
12426;DHT22;6277;49.824;9.562;2022-12-17T00:58:50;-5.20;61.00
12426;DHT22;6277;49.824;9.562;2022-12-17T01:01:34;-5.20;61.00
12426;DHT22;6277;49.824;9.562;2022-12-17T01:04:18;-5.20;61.00
12426;DHT22;6277;49.824;9.562;2022-12-17T01:07:02;-5.20;61.00
12426;DHT22;6277;49.824;9.562;2022-12-17T01:09:46;-5.20;61.00
12426;DHT22;6277;49.824;9.562;2022-12-17T01:12:30;-5.20;61.00
12426;DHT22;6277;49.824;9.562;2022-12-17T01:15:14;-5.30;61.00
12426;DHT22;6277;49.824;9.562;2022-12-17T01:17:58;-5.30;60.90
12426;DHT22;6277;49.824;9.562;2022-12-17T01:20:42;-5.30;60.90
12426;DHT22;6277;49.824;9.562;2022-12-17T01:23:26;-5.30;60.90
12426;DHT22;6277;49.824;9.562;2022-12-17T01:26:10;-5.40;60.90
12426;DHT22;6277;49.824;9.562;2022-12-17T01:28:56;-5.40;60.90
12426;DHT22;6277;49.824;9.562;2022-12-17T01:31:41;-5.50;60.90
12426;DHT22;6277;49.824;9.562;2022-12-17T01:34:25;-5.50;60.90
12426;DHT22;6277;49.824;9.562;2022-12-17T01:37:09;-5.50;60.90
12426;DHT22;6277;49.824;9.562;2022-12-17T01:39:54;-5.60;60.90
12426;DHT22;6277;49.824;9.562;2022-12-17T01:42:40;-5.60;61.00
12426;DHT22;6277;49.824;9.562;2022-12-17T01:45:25;-5.60;61.10
12426;DHT22;6277;49.824;9.562;2022-12-17T01:48:14;-5.60;61.00
12426;DHT22;6277;49.824;9.562;2022-12-17T01:50:59;-5.60;61.00
12426;DHT22;6277;49.824;9.562;2022-12-17T01:53:54;-5.60;61.00
12426;DHT22;6277;49.824;9.562;2022-12-17T01:56:41;-5.70;60.90
12426;DHT22;6277;49.824;9.562;2022-12-17T01:59:44;-5.70;61.00
12426;DHT22;6277;49.824;9.562;2022-12-17T02:02:31;-5.70;61.00
12426;DHT22;6277;49.824;9.562;2022-12-17T02:05:15;-5.80;61.00
12426;DHT22;6277;49.824;9.562;2022-12-17T02:08:04;-5.80;61.00
12426;DHT22;6277;49.824;9.562;2022-12-17T02:14:15;-5.90;61.20
12426;DHT22;6277;49.824;9.562;2022-12-17T02:17:02;-5.90;61.30
12426;DHT22;6277;49.824;9.562;2022-12-17T02:25:55;-5.80;61.40
12426;DHT22;6277;49.824;9.562;2022-12-17T02:28:46;-5.80;61.40
12426;DHT22;6277;49.824;9.562;2022-12-17T02:31:33;-5.80;61.30
12426;DHT22;6277;49.824;9.562;2022-12-17T02:34:18;-5.80;61.30
12426;DHT22;6277;49.824;9.562;2022-12-17T02:37:02;-5.80;61.30
12426;DHT22;6277;49.824;9.562;2022-12-17T02:39:46;-5.80;61.30
12426;DHT22;6277;49.824;9.562;2022-12-17T02:42:31;-5.80;61.30
12426;DHT22;6277;49.824;9.562;2022-12-17T02:45:16;-5.80;61.40
12426;DHT22;6277;49.824;9.562;2022-12-17T02:48:01;-5.80;61.50
12426;DHT22;6277;49.824;9.562;2022-12-17T02:50:47;-5.80;61.50
12426;DHT22;6277;49.824;9.562;2022-12-17T02:53:32;-5.80;61.40
12426;DHT22;6277;49.824;9.562;2022-12-17T02:56:17;-5.80;61.40
12426;DHT22;6277;49.824;9.562;2022-12-17T02:59:01;-5.80;61.40
12426;DHT22;6277;49.824;9.562;2022-12-17T03:01:45;-5.80;61.40
12426;DHT22;6277;49.824;9.562;2022-12-17T03:04:30;-5.80;61.30
12426;DHT22;6277;49.824;9.562;2022-12-17T03:07:27;-5.80;61.30
12426;DHT22;6277;49.824;9.562;2022-12-17T03:10:13;-5.80;61.30
12426;DHT22;6277;49.824;9.562;2022-12-17T03:12:56;-5.80;61.30
12426;DHT22;6277;49.824;9.562;2022-12-17T03:15:41;-5.80;61.30
12426;DHT22;6277;49.824;9.562;2022-12-17T03:18:38;-5.80;61.30
12426;DHT22;6277;49.824;9.562;2022-12-17T03:21:23;-5.80;61.30
12426;DHT22;6277;49.824;9.562;2022-12-17T03:24:07;-5.90;61.30
12426;DHT22;6277;49.824;9.562;2022-12-17T03:26:51;-5.90;61.20
12426;DHT22;6277;49.824;9.562;2022-12-17T03:29:35;-5.80;61.30
12426;DHT22;6277;49.824;9.562;2022-12-17T03:32:19;-5.90;61.20
12426;DHT22;6277;49.824;9.562;2022-12-17T03:35:03;-5.90;61.20
12426;DHT22;6277;49.824;9.562;2022-12-17T03:37:47;-5.90;61.20
12426;DHT22;6277;49.824;9.562;2022-12-17T03:40:31;-5.90;61.20
12426;DHT22;6277;49.824;9.562;2022-12-17T03:43:15;-5.90;61.20
12426;DHT22;6277;49.824;9.562;2022-12-17T03:46:00;-6.00;61.20
12426;DHT22;6277;49.824;9.562;2022-12-17T03:48:44;-6.00;61.20
12426;DHT22;6277;49.824;9.562;2022-12-17T03:51:28;-6.00;61.20
12426;DHT22;6277;49.824;9.562;2022-12-17T03:54:12;-6.00;61.20
12426;DHT22;6277;49.824;9.562;2022-12-17T03:56:56;-6.00;61.30
12426;DHT22;6277;49.824;9.562;2022-12-17T03:59:40;-6.00;61.30
12426;DHT22;6277;49.824;9.562;2022-12-17T04:02:24;-6.00;61.30
12426;DHT22;6277;49.824;9.562;2022-12-17T04:05:08;-6.00;61.20
12426;DHT22;6277;49.824;9.562;2022-12-17T04:07:52;-6.10;61.10
12426;DHT22;6277;49.824;9.562;2022-12-17T04:10:36;-6.10;61.10
12426;DHT22;6277;49.824;9.562;2022-12-17T04:13:20;-6.10;61.10
12426;DHT22;6277;49.824;9.562;2022-12-17T04:16:04;-6.20;61.10
12426;DHT22;6277;49.824;9.562;2022-12-17T04:18:48;-6.20;61.10
12426;DHT22;6277;49.824;9.562;2022-12-17T04:21:32;-6.20;61.20
12426;DHT22;6277;49.824;9.562;2022-12-17T04:24:16;-6.20;61.20
12426;DHT22;6277;49.824;9.562;2022-12-17T04:27:00;-6.20;61.20
12426;DHT22;6277;49.824;9.562;2022-12-17T04:29:44;-6.20;61.20
12426;DHT22;6277;49.824;9.562;2022-12-17T04:32:29;-6.30;61.20
12426;DHT22;6277;49.824;9.562;2022-12-17T04:35:12;-6.30;61.20
12426;DHT22;6277;49.824;9.562;2022-12-17T04:37:57;-6.30;61.20
12426;DHT22;6277;49.824;9.562;2022-12-17T04:40:41;-6.40;61.20
12426;DHT22;6277;49.824;9.562;2022-12-17T04:43:25;-6.40;61.20
12426;DHT22;6277;49.824;9.562;2022-12-17T04:46:09;-6.40;61.20
12426;DHT22;6277;49.824;9.562;2022-12-17T04:48:53;-6.40;61.20
12426;DHT22;6277;49.824;9.562;2022-12-17T04:51:37;-6.40;61.30
12426;DHT22;6277;49.824;9.562;2022-12-17T04:54:21;-6.40;61.40
12426;DHT22;6277;49.824;9.562;2022-12-17T04:57:05;-6.40;61.30
12426;DHT22;6277;49.824;9.562;2022-12-17T04:59:49;-6.40;61.30
12426;DHT22;6277;49.824;9.562;2022-12-17T05:02:33;-6.40;61.40
12426;DHT22;6277;49.824;9.562;2022-12-17T05:05:17;-6.50;61.30
12426;DHT22;6277;49.824;9.562;2022-12-17T05:08:01;-6.50;61.30
12426;DHT22;6277;49.824;9.562;2022-12-17T05:11:03;-6.50;61.30
12426;DHT22;6277;49.824;9.562;2022-12-17T05:13:48;-6.50;61.30
12426;DHT22;6277;49.824;9.562;2022-12-17T05:16:32;-6.50;61.30
12426;DHT22;6277;49.824;9.562;2022-12-17T05:19:16;-6.50;61.30
12426;DHT22;6277;49.824;9.562;2022-12-17T05:22:00;-6.50;61.40
12426;DHT22;6277;49.824;9.562;2022-12-17T05:25:04;-6.60;61.30
12426;DHT22;6277;49.824;9.562;2022-12-17T05:27:49;-6.60;61.30
12426;DHT22;6277;49.824;9.562;2022-12-17T05:30:33;-6.60;61.30
12426;DHT22;6277;49.824;9.562;2022-12-17T05:33:17;-6.60;61.30
12426;DHT22;6277;49.824;9.562;2022-12-17T05:36:03;-6.60;61.30
12426;DHT22;6277;49.824;9.562;2022-12-17T05:38:48;-6.60;61.30
12426;DHT22;6277;49.824;9.562;2022-12-17T05:41:33;-6.60;61.30
12426;DHT22;6277;49.824;9.562;2022-12-17T05:44:17;-6.60;61.40
12426;DHT22;6277;49.824;9.562;2022-12-17T05:47:02;-6.60;61.30
12426;DHT22;6277;49.824;9.562;2022-12-17T05:49:46;-6.70;61.30
12426;DHT22;6277;49.824;9.562;2022-12-17T05:52:30;-6.70;61.40
12426;DHT22;6277;49.824;9.562;2022-12-17T05:55:14;-6.70;61.30
12426;DHT22;6277;49.824;9.562;2022-12-17T05:58:06;-6.70;61.30
12426;DHT22;6277;49.824;9.562;2022-12-17T06:00:56;-6.70;61.40
12426;DHT22;6277;49.824;9.562;2022-12-17T06:03:40;-6.70;61.40
12426;DHT22;6277;49.824;9.562;2022-12-17T06:06:25;-6.70;61.40
12426;DHT22;6277;49.824;9.562;2022-12-17T06:09:09;-6.70;61.40
12426;DHT22;6277;49.824;9.562;2022-12-17T06:11:53;-6.70;61.50
12426;DHT22;6277;49.824;9.562;2022-12-17T06:14:38;-6.80;61.40
12426;DHT22;6277;49.824;9.562;2022-12-17T06:17:35;-6.80;61.40
12426;DHT22;6277;49.824;9.562;2022-12-17T06:20:20;-6.80;61.30
12426;DHT22;6277;49.824;9.562;2022-12-17T06:23:06;-6.80;61.30
12426;DHT22;6277;49.824;9.562;2022-12-17T06:25:52;-6.80;61.40
12426;DHT22;6277;49.824;9.562;2022-12-17T06:28:40;-6.90;61.30
12426;DHT22;6277;49.824;9.562;2022-12-17T06:31:25;-6.90;61.30
12426;DHT22;6277;49.824;9.562;2022-12-17T06:34:10;-6.90;61.30
12426;DHT22;6277;49.824;9.562;2022-12-17T06:36:55;-6.90;61.30
12426;DHT22;6277;49.824;9.562;2022-12-17T06:39:39;-6.90;61.30
12426;DHT22;6277;49.824;9.562;2022-12-17T06:42:23;-6.90;61.30
12426;DHT22;6277;49.824;9.562;2022-12-17T06:45:07;-7.00;61.30
12426;DHT22;6277;49.824;9.562;2022-12-17T06:47:51;-7.00;61.30
12426;DHT22;6277;49.824;9.562;2022-12-17T06:50:35;-7.00;61.40
12426;DHT22;6277;49.824;9.562;2022-12-17T06:53:20;-7.00;61.40
12426;DHT22;6277;49.824;9.562;2022-12-17T06:56:14;-7.00;61.40
12426;DHT22;6277;49.824;9.562;2022-12-17T06:58:58;-7.00;61.40
12426;DHT22;6277;49.824;9.562;2022-12-17T07:01:43;-6.90;61.50
12426;DHT22;6277;49.824;9.562;2022-12-17T07:04:27;-7.00;62.00
12426;DHT22;6277;49.824;9.562;2022-12-17T07:07:11;-7.00;61.40
12426;DHT22;6277;49.824;9.562;2022-12-17T07:09:55;-7.00;61.40
12426;DHT22;6277;49.824;9.562;2022-12-17T07:12:39;-7.00;61.50
12426;DHT22;6277;49.824;9.562;2022-12-17T07:15:23;-7.00;61.50
12426;DHT22;6277;49.824;9.562;2022-12-17T07:18:07;-7.00;61.50
12426;DHT22;6277;49.824;9.562;2022-12-17T07:20:52;-7.00;61.50
12426;DHT22;6277;49.824;9.562;2022-12-17T07:23:39;-7.00;61.60
12426;DHT22;6277;49.824;9.562;2022-12-17T07:26:24;-7.00;61.60
12426;DHT22;6277;49.824;9.562;2022-12-17T07:29:08;-7.00;61.60
12426;DHT22;6277;49.824;9.562;2022-12-17T07:31:52;-7.00;61.60
12426;DHT22;6277;49.824;9.562;2022-12-17T07:34:36;-7.00;61.70
12426;DHT22;6277;49.824;9.562;2022-12-17T07:37:20;-7.00;61.70
12426;DHT22;6277;49.824;9.562;2022-12-17T07:40:04;-7.00;61.70
12426;DHT22;6277;49.824;9.562;2022-12-17T07:42:49;-7.00;61.70
12426;DHT22;6277;49.824;9.562;2022-12-17T07:45:33;-7.00;61.70
12426;DHT22;6277;49.824;9.562;2022-12-17T07:48:17;-6.90;61.90
12426;DHT22;6277;49.824;9.562;2022-12-17T07:51:01;-6.90;61.90
12426;DHT22;6277;49.824;9.562;2022-12-17T07:53:45;-6.90;61.90
12426;DHT22;6277;49.824;9.562;2022-12-17T07:56:29;-6.80;62.00
12426;DHT22;6277;49.824;9.562;2022-12-17T07:59:13;-6.80;62.00
12426;DHT22;6277;49.824;9.562;2022-12-17T08:01:57;-6.70;62.00
12426;DHT22;6277;49.824;9.562;2022-12-17T08:04:42;-6.70;62.00
12426;DHT22;6277;49.824;9.562;2022-12-17T08:07:28;-6.60;62.10
12426;DHT22;6277;49.824;9.562;2022-12-17T08:10:12;-6.60;62.10
12426;DHT22;6277;49.824;9.562;2022-12-17T08:13:01;-6.50;62.20
12426;DHT22;6277;49.824;9.562;2022-12-17T08:15:46;-6.50;62.20
12426;DHT22;6277;49.824;9.562;2022-12-17T08:18:33;-6.40;62.30
12426;DHT22;6277;49.824;9.562;2022-12-17T08:21:17;-6.30;62.30
12426;DHT22;6277;49.824;9.562;2022-12-17T08:24:01;-6.20;62.30
12426;DHT22;6277;49.824;9.562;2022-12-17T08:26:46;-6.20;62.30
12426;DHT22;6277;49.824;9.562;2022-12-17T08:29:30;-6.10;62.40
12426;DHT22;6277;49.824;9.562;2022-12-17T08:32:14;-6.00;62.50
12426;DHT22;6277;49.824;9.562;2022-12-17T08:34:58;-6.00;62.60
12426;DHT22;6277;49.824;9.562;2022-12-17T08:37:43;-5.90;62.80
12426;DHT22;6277;49.824;9.562;2022-12-17T08:40:27;-5.70;63.30
12426;DHT22;6277;49.824;9.562;2022-12-17T08:43:11;-5.50;63.50
12426;DHT22;6277;49.824;9.562;2022-12-17T08:45:56;-5.20;63.50
12426;DHT22;6277;49.824;9.562;2022-12-17T08:48:41;-5.10;63.40
12426;DHT22;6277;49.824;9.562;2022-12-17T08:51:25;-4.90;63.40
12426;DHT22;6277;49.824;9.562;2022-12-17T08:54:09;-4.80;63.30
12426;DHT22;6277;49.824;9.562;2022-12-17T08:56:54;-4.70;63.20
12426;DHT22;6277;49.824;9.562;2022-12-17T08:59:38;-4.60;63.20
12426;DHT22;6277;49.824;9.562;2022-12-17T09:02:24;-4.50;63.10
12426;DHT22;6277;49.824;9.562;2022-12-17T09:05:08;-4.40;63.20
12426;DHT22;6277;49.824;9.562;2022-12-17T09:08:05;-4.40;63.10
12426;DHT22;6277;49.824;9.562;2022-12-17T09:10:50;-4.30;63.10
12426;DHT22;6277;49.824;9.562;2022-12-17T09:13:35;-4.20;63.00
12426;DHT22;6277;49.824;9.562;2022-12-17T09:16:19;-4.20;62.90
12426;DHT22;6277;49.824;9.562;2022-12-17T09:19:04;-4.10;62.90
12426;DHT22;6277;49.824;9.562;2022-12-17T09:21:48;-4.00;62.90
12426;DHT22;6277;49.824;9.562;2022-12-17T09:24:32;-3.90;62.90
12426;DHT22;6277;49.824;9.562;2022-12-17T09:27:16;-3.90;63.00
12426;DHT22;6277;49.824;9.562;2022-12-17T09:30:00;-3.80;63.00
12426;DHT22;6277;49.824;9.562;2022-12-17T09:32:44;-3.70;63.00
